Aérodrome :
LOGIN :

S'inscrire | Disclaimer

   EN    FR    IT 

 










Légende :    VFR   VFR Marginal   IFR   IFR Intensif   IFR Très Intensif
Visi : 
Plafond : 
>= 8 km
>= 3000ft
5 à 8 km
1000 à 3000 ft
1500m à 5 km
500 à 1000 ft
800 à 1500m
200 à 500 ft
< 800m
< 200 ft
Symboles :   Orages  Brouillard  Fortes neiges  Fortes précipitations  Vent > 20 kt
SIGMETs :   Divers  Orages  Givrage  Turbulence  Onde Orograph.  Cendres Volcan.







- Altitude de l'aérodrome : 75 ft
- Code IATA : MRH


EGYM - RAF Marham

DERNIER METAR :
  • 190850Z 24013KT 9999 BKN020 BKN080 16/12 Q1011 WHT

METARs EXPIRÉS :
  • 190820Z 24013KT 9999 FEW015 SCT020 BKN080 15/12 Q1011 TEMPO FEW015 BLU RMK WHT TEMPO BLU
  • 190750Z AUTO 23013KT 9999 OVC080/// 16/12 Q1010
  • 190720Z 22011KT 9999 FEW014 BKN080 15/12 Q1010 TEMPO SCT020 WHT RMK BLU TEMPO WHT
  • 190650Z 21012KT 9999 FEW012 14/11 Q1010 TEMPO SCT020 RMK BLU TEMPO WHT

TAF TAF EGYM
Valide du 19 à 09h jusqu'au 19 à 18h UTC


190739Z 1909/1918 22012KT 9999 FEW028
PROB40
TEMPO 1909/1912 SCT020
TEMPO 1910/1918 7000 SHRA SCT030CB
PROB30
TEMPO 1911/1918 25015G25KT 4000 -TSRA BKN030CB
Pas de NOTAMs connus pour ce terrain.



MET'MAP, la Météo Aéronautique d'un coup d'oeil ! - Copyright ORBIFLY Décembre 2007 - Disclaimer

ORBIFLY MET'MAP TEAM :

Programmation & Développement : Alexandra Zaïnal
Conception & Développement : Baudouin d'Aumeries
Co-Programmation & Développement : Marc-Olivier Méhu
Soutien technique & logistique : Manuel Goepfert

Contact : metmap@orbifly.com




SOURCES & CREDITS :

   NOAA